createdAt,value
2022-12-04T00:01:19.953Z,3.73
2022-12-04T00:03:47.055Z,3.71
2022-12-04T00:06:17.665Z,3.74
2022-12-04T00:08:46.765Z,3.72
2022-12-04T00:11:16.115Z,3.72
2022-12-04T00:13:43.257Z,3.72
2022-12-04T00:16:13.760Z,3.73
2022-12-04T00:18:41.076Z,3.73
2022-12-04T00:21:10.770Z,3.73
2022-12-04T00:23:38.918Z,3.71
2022-12-04T00:26:12.386Z,3.71
2022-12-04T00:28:40.288Z,3.73
2022-12-04T00:31:09.438Z,3.74
2022-12-04T00:33:36.970Z,3.71
2022-12-04T00:36:08.018Z,3.73
2022-12-04T00:38:35.637Z,3.73
2022-12-04T00:41:02.561Z,3.74
2022-12-04T00:43:31.104Z,3.70
2022-12-04T00:45:58.019Z,3.72
2022-12-04T00:48:24.922Z,3.72
2022-12-04T00:50:52.579Z,3.70
2022-12-04T00:53:19.432Z,3.72
2022-12-04T00:55:46.248Z,3.72
2022-12-04T00:58:13.230Z,3.74
2022-12-04T01:00:42.182Z,3.72
2022-12-04T01:03:10.651Z,3.71
2022-12-04T01:05:43.371Z,3.71
2022-12-04T01:08:12.344Z,3.73
2022-12-04T01:10:41.580Z,3.72
2022-12-04T01:13:09.389Z,3.72
2022-12-04T01:15:43.071Z,3.72
2022-12-04T01:20:52.614Z,3.72
2022-12-04T01:23:20.093Z,3.73
2022-12-04T01:25:55.197Z,3.71
2022-12-04T01:28:22.221Z,3.76
2022-12-04T01:31:09.797Z,3.75
2022-12-04T01:33:37.622Z,3.76
2022-12-04T01:36:07.629Z,3.74
2022-12-04T01:38:35.911Z,3.75
2022-12-04T01:41:03.463Z,3.77
2022-12-04T01:43:35.333Z,3.79
2022-12-04T01:46:03.270Z,3.79
2022-12-04T01:48:41.725Z,3.78
2022-12-04T01:51:15.974Z,3.79
2022-12-04T01:53:47.526Z,3.78
2022-12-04T01:56:17.093Z,3.80
2022-12-04T01:58:48.321Z,3.83
2022-12-04T02:01:15.200Z,3.82
2022-12-04T02:03:42.611Z,3.81
2022-12-04T02:06:09.672Z,3.83
2022-12-04T02:08:37.742Z,3.81
2022-12-04T02:11:25.675Z,3.83
2022-12-04T02:14:26.215Z,3.84
2022-12-04T02:16:56.043Z,3.84
2022-12-04T02:19:25.794Z,3.83
2022-12-04T02:21:57.393Z,3.88
2022-12-04T02:24:50.014Z,3.88
2022-12-04T02:27:39.249Z,3.88
2022-12-04T02:30:09.888Z,3.87
2022-12-04T02:33:03.944Z,3.88
2022-12-04T02:35:40.325Z,3.89
2022-12-04T02:38:27.129Z,3.90
2022-12-04T02:41:04.559Z,3.91
2022-12-04T02:43:39.156Z,3.94
2022-12-04T02:46:12.482Z,3.94
2022-12-04T02:48:43.927Z,3.96
2022-12-04T02:51:14.840Z,3.97
2022-12-04T02:53:57.260Z,3.96
2022-12-04T02:56:31.267Z,3.95
2022-12-04T02:59:07.797Z,3.98
2022-12-04T03:01:39.200Z,3.97
2022-12-04T03:04:14.039Z,3.95
2022-12-04T03:06:43.790Z,3.94
2022-12-04T03:09:42.966Z,3.95
2022-12-04T03:12:15.952Z,3.93
2022-12-04T03:14:59.320Z,3.94
2022-12-04T03:17:33.709Z,3.97
2022-12-04T03:20:06.105Z,3.98
2022-12-04T03:22:37.039Z,3.96
2022-12-04T03:25:07.628Z,3.96
2022-12-04T03:27:37.483Z,3.94
2022-12-04T03:30:14.363Z,3.94
2022-12-04T03:33:03.962Z,3.94
2022-12-04T03:35:40.240Z,3.92
2022-12-04T03:38:18.884Z,3.93
2022-12-04T03:41:03.002Z,3.93
2022-12-04T03:43:39.814Z,3.92
2022-12-04T03:46:16.024Z,3.93
2022-12-04T03:48:48.715Z,3.92
2022-12-04T03:51:21.648Z,3.93
2022-12-04T03:53:56.482Z,3.92
2022-12-04T03:56:27.775Z,3.91
2022-12-04T03:59:03.927Z,3.92
2022-12-04T04:01:36.628Z,3.91
2022-12-04T04:04:07.452Z,3.92
2022-12-04T04:06:42.471Z,3.89
2022-12-04T04:09:13.054Z,3.89
2022-12-04T04:11:49.944Z,3.89
2022-12-04T04:14:55.022Z,3.90
2022-12-04T04:17:28.035Z,3.90
2022-12-04T04:20:04.519Z,3.91
2022-12-04T04:22:31.527Z,3.91
2022-12-04T04:25:18.124Z,3.93
2022-12-04T04:27:53.226Z,3.91
2022-12-04T04:30:20.862Z,3.93
2022-12-04T04:33:16.838Z,3.91
2022-12-04T04:35:57.534Z,3.93
2022-12-04T04:38:32.208Z,3.93
2022-12-04T04:41:07.496Z,3.91
2022-12-04T04:43:40.794Z,3.92
2022-12-04T04:46:20.426Z,3.93
2022-12-04T04:48:58.167Z,3.93
2022-12-04T04:51:28.219Z,3.93
2022-12-04T04:53:58.919Z,3.93
2022-12-04T04:56:25.760Z,3.93
2022-12-04T04:58:52.518Z,3.94
2022-12-04T05:01:22.942Z,3.91
2022-12-04T05:03:49.892Z,3.92
2022-12-04T05:06:16.769Z,3.93
2022-12-04T05:08:43.591Z,3.92
2022-12-04T05:11:15.149Z,3.92
2022-12-04T05:13:42.639Z,3.91
2022-12-04T05:16:14.553Z,3.92
2022-12-04T05:18:42.147Z,3.90
2022-12-04T05:21:13.549Z,3.91
2022-12-04T05:23:40.340Z,3.89
2022-12-04T05:26:08.579Z,3.89
2022-12-04T05:28:35.396Z,3.90
2022-12-04T05:31:03.691Z,3.91
2022-12-04T05:33:31.513Z,3.91
2022-12-04T05:36:04.983Z,3.91
2022-12-04T05:38:32.496Z,3.91
2022-12-04T05:41:00.410Z,3.93
2022-12-04T05:43:27.856Z,3.93
2022-12-04T05:45:55.120Z,3.92
2022-12-04T05:48:21.962Z,3.92
2022-12-04T05:50:48.742Z,3.90
2022-12-04T05:53:15.473Z,3.89
2022-12-04T05:55:42.256Z,3.89
2022-12-04T05:58:09.044Z,3.89
2022-12-04T06:00:35.903Z,3.86
2022-12-04T06:03:02.681Z,3.86
2022-12-04T06:05:29.480Z,3.88
2022-12-04T06:07:56.291Z,3.87
2022-12-04T06:10:23.056Z,3.85
2022-12-04T06:12:49.829Z,3.82
2022-12-04T06:15:16.823Z,3.80
2022-12-04T06:17:43.643Z,3.80
2022-12-04T06:20:11.915Z,3.79
2022-12-04T06:22:39.171Z,3.79
2022-12-04T06:25:06.518Z,3.76
2022-12-04T06:27:33.440Z,3.75
2022-12-04T06:30:00.583Z,3.76
2022-12-04T06:32:27.542Z,3.75
2022-12-04T06:34:55.328Z,3.75
2022-12-04T06:37:24.548Z,3.79
2022-12-04T06:39:51.406Z,3.79
2022-12-04T06:42:18.256Z,3.79
2022-12-04T06:44:45.340Z,3.78
2022-12-04T06:47:12.433Z,3.77
2022-12-04T06:49:39.300Z,3.76
2022-12-04T06:52:06.212Z,3.73
2022-12-04T06:54:33.020Z,3.74
2022-12-04T06:56:59.842Z,3.74
2022-12-04T06:59:26.976Z,3.71
2022-12-04T07:01:53.808Z,3.70
2022-12-04T07:04:20.809Z,3.67
2022-12-04T07:06:47.589Z,3.68
2022-12-04T07:09:18.336Z,3.67
2022-12-04T07:11:49.334Z,3.67
2022-12-04T07:14:16.173Z,3.68
2022-12-04T07:16:43.364Z,3.63
2022-12-04T07:19:12.879Z,3.62
2022-12-04T07:21:40.714Z,3.64
2022-12-04T07:24:07.825Z,3.64
2022-12-04T07:26:34.697Z,3.66
2022-12-04T07:29:01.510Z,3.66
2022-12-04T07:31:29.758Z,3.64
2022-12-04T07:33:57.957Z,3.62
2022-12-04T07:36:26.520Z,3.64
2022-12-04T07:38:55.783Z,3.60
2022-12-04T07:41:23.558Z,3.58
2022-12-04T07:43:50.377Z,3.56
2022-12-04T07:46:24.376Z,3.52
2022-12-04T07:48:51.198Z,3.47
2022-12-04T07:51:20.621Z,3.44
2022-12-04T07:53:48.877Z,3.44
2022-12-04T07:56:15.938Z,3.43
2022-12-04T07:58:43.383Z,3.43
2022-12-04T08:01:19.653Z,3.45
2022-12-04T08:03:49.038Z,3.40
2022-12-04T08:06:18.303Z,3.39
2022-12-04T08:08:45.964Z,3.40
2022-12-04T08:11:16.262Z,3.37
2022-12-04T08:13:43.545Z,3.35
2022-12-04T08:16:11.923Z,3.33
2022-12-04T08:18:39.158Z,3.31
2022-12-04T08:21:08.491Z,3.30
2022-12-04T08:23:36.161Z,3.29
2022-12-04T08:26:04.086Z,3.29
2022-12-04T08:28:31.641Z,3.27
2022-12-04T08:31:17.882Z,3.26
2022-12-04T08:33:46.190Z,3.27
2022-12-04T08:36:15.761Z,3.25
2022-12-04T08:38:43.275Z,3.25
2022-12-04T08:41:14.150Z,3.22
2022-12-04T08:43:41.745Z,3.21
2022-12-04T08:46:12.510Z,3.21
2022-12-04T08:48:39.902Z,3.20
2022-12-04T08:51:08.368Z,3.19
2022-12-04T08:53:36.483Z,3.17
2022-12-04T08:56:04.767Z,3.14
2022-12-04T08:58:31.993Z,3.08
2022-12-04T09:01:13.482Z,3.07
2022-12-04T09:03:42.345Z,3.07
2022-12-04T09:06:12.655Z,3.08
2022-12-04T09:08:40.505Z,3.07
2022-12-04T09:11:19.986Z,3.08
2022-12-04T09:13:47.946Z,3.05
2022-12-04T09:16:22.447Z,3.04
2022-12-04T09:18:57.814Z,3.04
2022-12-04T09:21:26.475Z,3.03
2022-12-04T09:23:54.264Z,3.05
2022-12-04T09:26:34.785Z,3.04
2022-12-04T09:29:04.367Z,3.04
2022-12-04T09:31:33.012Z,3.04
2022-12-04T09:34:01.515Z,3.02
2022-12-04T09:36:28.824Z,3.03
2022-12-04T09:38:57.866Z,3.01
2022-12-04T09:41:37.092Z,3.04
2022-12-04T09:44:10.073Z,3.04
2022-12-04T09:46:44.492Z,3.01
2022-12-04T09:49:20.999Z,2.98
2022-12-04T09:51:50.325Z,2.97
2022-12-04T09:54:27.431Z,2.95
2022-12-04T09:57:02.318Z,2.93
2022-12-04T09:59:32.958Z,2.94
2022-12-04T10:02:12.378Z,2.94
2022-12-04T10:04:40.499Z,2.91
2022-12-04T10:07:20.695Z,2.90
2022-12-04T10:09:55.563Z,2.90
2022-12-04T10:12:36.447Z,2.90
2022-12-04T10:15:30.680Z,2.87
2022-12-04T10:18:22.439Z,2.85
2022-12-04T10:21:02.057Z,2.82
2022-12-04T10:23:59.236Z,2.81
2022-12-04T10:26:33.245Z,2.82
2022-12-04T10:29:04.301Z,2.81
2022-12-04T10:31:35.429Z,2.82
2022-12-04T10:34:07.833Z,2.81
2022-12-04T10:36:36.012Z,2.81
2022-12-04T10:39:24.888Z,2.81
2022-12-04T10:42:00.233Z,2.83
2022-12-04T10:44:28.792Z,2.84
2022-12-04T10:47:01.856Z,2.83
2022-12-04T10:49:31.561Z,2.85
2022-12-04T10:51:58.502Z,2.83
2022-12-04T10:54:43.765Z,2.83
2022-12-04T10:57:12.453Z,2.82
2022-12-04T10:59:57.568Z,2.81
2022-12-04T11:02:26.772Z,2.79
2022-12-04T11:05:01.483Z,2.78
2022-12-04T11:07:32.089Z,2.77
2022-12-04T11:10:03.859Z,2.75
2022-12-04T11:12:32.005Z,2.74
2022-12-04T11:15:22.877Z,2.73
2022-12-04T11:17:50.298Z,2.74
2022-12-04T11:20:22.355Z,2.71
2022-12-04T11:22:55.235Z,2.75
2022-12-04T11:25:27.588Z,2.75
2022-12-04T11:28:01.346Z,2.73
2022-12-04T11:30:34.297Z,2.72
2022-12-04T11:33:02.988Z,2.71
2022-12-04T11:35:32.965Z,2.70
2022-12-04T11:38:14.516Z,2.68
2022-12-04T11:40:54.707Z,2.70
2022-12-04T11:43:28.134Z,2.69
2022-12-04T11:46:03.825Z,2.69
2022-12-04T11:48:32.643Z,2.71
2022-12-04T11:51:29.790Z,2.73
2022-12-04T11:54:28.391Z,2.72
2022-12-04T11:57:17.402Z,2.73
2022-12-04T11:59:59.862Z,2.73
2022-12-04T12:02:50.924Z,2.73
2022-12-04T12:05:53.098Z,2.74
2022-12-04T12:08:23.034Z,2.75
2022-12-04T12:11:20.988Z,2.74
2022-12-04T12:14:18.942Z,2.75
2022-12-04T12:17:11.354Z,2.73
2022-12-04T12:20:12.474Z,2.74
2022-12-04T12:22:52.501Z,2.76
2022-12-04T12:25:39.604Z,2.77
2022-12-04T12:28:26.985Z,2.77
2022-12-04T12:31:04.083Z,2.77
2022-12-04T12:33:46.798Z,2.78
2022-12-04T12:36:17.053Z,2.79
2022-12-04T12:38:48.251Z,2.80
2022-12-04T12:41:24.185Z,2.83
2022-12-04T12:44:11.295Z,2.81
2022-12-04T12:46:49.718Z,2.81
2022-12-04T12:49:26.644Z,2.83
2022-12-04T12:52:20.459Z,2.80
2022-12-04T12:55:03.004Z,2.78
2022-12-04T12:57:38.845Z,2.78
2022-12-04T13:00:27.005Z,2.77
2022-12-04T13:03:18.901Z,2.77
2022-12-04T13:05:52.050Z,2.78
2022-12-04T13:08:39.504Z,2.76
2022-12-04T13:11:13.087Z,2.76
2022-12-04T13:13:49.697Z,2.76
2022-12-04T13:16:48.525Z,2.77
2022-12-04T13:19:50.468Z,2.77
2022-12-04T13:23:11.604Z,2.78
2022-12-04T13:26:00.896Z,2.78
2022-12-04T13:28:50.319Z,2.78
2022-12-04T13:31:23.179Z,2.77
2022-12-04T13:34:08.519Z,2.78
2022-12-04T13:36:53.250Z,2.78
2022-12-04T13:39:28.370Z,2.77
2022-12-04T13:42:02.258Z,2.76
2022-12-04T13:44:31.649Z,2.74
2022-12-04T13:47:08.099Z,2.73
2022-12-04T13:49:39.530Z,2.75
2022-12-04T13:52:35.933Z,2.74
2022-12-04T13:55:02.789Z,2.75
2022-12-04T13:57:29.505Z,2.75
2022-12-04T14:00:23.805Z,2.76
2022-12-04T14:02:54.490Z,2.75
2022-12-04T14:05:41.195Z,2.75
2022-12-04T14:08:25.828Z,2.74
2022-12-04T14:11:10.194Z,2.73
2022-12-04T14:13:43.815Z,2.73
2022-12-04T14:16:42.940Z,2.74
2022-12-04T14:19:45.320Z,2.73
2022-12-04T14:22:29.116Z,2.75
2022-12-04T14:25:09.008Z,2.74
2022-12-04T14:27:42.225Z,2.75
2022-12-04T14:30:36.519Z,2.76
2022-12-04T14:33:25.274Z,2.75
2022-12-04T14:36:23.395Z,2.77
2022-12-04T14:39:03.265Z,2.79
2022-12-04T14:41:30.807Z,2.78
2022-12-04T14:43:58.501Z,2.79
2022-12-04T14:46:49.987Z,2.77
2022-12-04T14:49:30.238Z,2.79
2022-12-04T14:52:14.050Z,2.77
2022-12-04T14:54:47.288Z,2.78
2022-12-04T14:57:25.308Z,2.76
2022-12-04T14:59:55.298Z,2.78
2022-12-04T15:02:26.729Z,2.78
2022-12-04T15:04:55.044Z,2.81
2022-12-04T15:07:28.436Z,2.80
2022-12-04T15:10:01.793Z,2.79
2022-12-04T15:12:31.507Z,2.79
2022-12-04T15:15:18.545Z,2.79
2022-12-04T15:18:17.679Z,2.79
2022-12-04T15:20:54.413Z,2.82
2022-12-04T15:23:35.299Z,2.81
2022-12-04T15:26:10.719Z,2.82
2022-12-04T15:28:53.091Z,2.81
2022-12-04T15:31:35.093Z,2.82
2022-12-04T15:34:12.961Z,2.83
2022-12-04T15:36:51.033Z,2.83
2022-12-04T15:39:25.877Z,2.84
2022-12-04T15:42:16.692Z,2.87
2022-12-04T15:45:22.763Z,2.84
2022-12-04T15:47:53.155Z,2.82
2022-12-04T15:50:26.466Z,2.83
2022-12-04T15:53:08.134Z,2.84
2022-12-04T15:55:51.732Z,2.85
2022-12-04T15:58:23.227Z,2.83
2022-12-04T16:01:04.082Z,2.84
2022-12-04T16:03:32.680Z,2.82
2022-12-04T16:06:14.028Z,2.83
2022-12-04T16:08:43.308Z,2.79
2022-12-04T16:11:20.322Z,2.78
2022-12-04T16:14:02.635Z,2.81
2022-12-04T16:16:30.481Z,2.79
2022-12-04T16:18:59.025Z,2.81
2022-12-04T16:21:35.556Z,2.81
2022-12-04T16:24:04.828Z,2.80
2022-12-04T16:26:33.843Z,2.77
2022-12-04T16:29:02.496Z,2.79
2022-12-04T16:31:30.676Z,2.78
2022-12-04T16:34:00.606Z,2.77
2022-12-04T16:36:32.318Z,2.75
2022-12-04T16:39:04.372Z,2.77
2022-12-04T16:41:32.380Z,2.76
2022-12-04T16:44:01.078Z,2.77
2022-12-04T16:46:30.749Z,2.77
2022-12-04T16:49:02.726Z,2.77
2022-12-04T16:51:34.009Z,2.78
2022-12-04T16:54:01.923Z,2.75
2022-12-04T16:56:30.963Z,2.75
2022-12-04T16:59:01.320Z,2.77
2022-12-04T17:01:40.902Z,2.77
2022-12-04T17:04:14.562Z,2.78
2022-12-04T17:06:43.547Z,2.77
2022-12-04T17:09:11.871Z,2.76
2022-12-04T17:11:41.140Z,2.76
2022-12-04T17:14:09.061Z,2.75
2022-12-04T17:16:39.631Z,2.74
2022-12-04T17:19:07.068Z,2.74
2022-12-04T17:21:36.217Z,2.71
2022-12-04T17:24:06.651Z,2.70
2022-12-04T17:26:36.045Z,2.69
2022-12-04T17:29:07.977Z,2.69
2022-12-04T17:31:36.600Z,2.71
2022-12-04T17:34:04.135Z,2.68
2022-12-04T17:36:31.648Z,2.70
2022-12-04T17:39:00.799Z,2.71
2022-12-04T17:41:28.856Z,2.69
2022-12-04T17:43:56.787Z,2.70
2022-12-04T17:46:26.146Z,2.70
2022-12-04T17:48:56.559Z,2.71
2022-12-04T17:51:25.257Z,2.70
2022-12-04T17:53:52.916Z,2.72
2022-12-04T17:56:23.825Z,2.70
2022-12-04T17:58:52.176Z,2.71
2022-12-04T18:01:25.153Z,2.72
2022-12-04T18:04:03.045Z,2.69
2022-12-04T18:06:41.544Z,2.70
2022-12-04T18:09:11.338Z,2.70
2022-12-04T18:11:41.289Z,2.70
2022-12-04T18:14:12.553Z,2.70
2022-12-04T18:16:44.789Z,2.69
2022-12-04T18:19:13.988Z,2.69
2022-12-04T18:21:41.847Z,2.68
2022-12-04T18:24:15.539Z,2.69
2022-12-04T18:26:46.050Z,2.71
2022-12-04T18:29:17.015Z,2.71
2022-12-04T18:31:45.756Z,2.73
2022-12-04T18:34:14.162Z,2.71
2022-12-04T18:36:42.622Z,2.71
2022-12-04T18:39:16.580Z,2.70
2022-12-04T18:41:45.659Z,2.72
2022-12-04T18:44:13.801Z,2.71
2022-12-04T18:46:42.559Z,2.72
2022-12-04T18:49:11.850Z,2.73
2022-12-04T18:51:47.016Z,2.72
2022-12-04T18:54:22.757Z,2.73
2022-12-04T18:56:51.945Z,2.70
2022-12-04T18:59:24.549Z,2.74
2022-12-04T19:01:54.184Z,2.75
2022-12-04T19:04:23.677Z,2.76
2022-12-04T19:06:56.410Z,2.76
2022-12-04T19:10:02.076Z,2.78
2022-12-04T19:12:16.270Z,2.76
2022-12-04T19:14:45.198Z,2.77
2022-12-04T19:17:14.898Z,2.76
2022-12-04T19:19:43.006Z,2.78
2022-12-04T19:22:10.927Z,2.79
2022-12-04T19:24:39.571Z,2.81
2022-12-04T19:27:07.901Z,2.82
2022-12-04T19:29:35.929Z,2.83
2022-12-04T19:32:03.975Z,2.81
2022-12-04T19:34:32.135Z,2.82
2022-12-04T19:37:00.227Z,2.82
2022-12-04T19:39:31.142Z,2.82
2022-12-04T19:42:00.244Z,2.82
2022-12-04T19:47:16.463Z,2.83
2022-12-04T19:49:44.673Z,2.85
2022-12-04T19:52:18.428Z,2.84
2022-12-04T19:54:47.776Z,2.82
2022-12-04T19:57:17.483Z,2.81
2022-12-04T19:59:46.748Z,2.82
2022-12-04T20:02:25.499Z,2.85
2022-12-04T20:04:53.783Z,2.85
2022-12-04T20:07:21.837Z,2.83
2022-12-04T20:09:52.877Z,2.87
2022-12-04T20:12:21.001Z,2.85
2022-12-04T20:14:50.772Z,2.86
2022-12-04T20:17:18.687Z,2.88
2022-12-04T20:19:46.677Z,2.89
2022-12-04T20:22:14.746Z,2.88
2022-12-04T20:24:42.117Z,2.91
2022-12-04T20:27:09.668Z,2.92
2022-12-04T20:29:37.858Z,2.94
2022-12-04T20:32:05.999Z,2.93
2022-12-04T20:34:40.075Z,2.97
2022-12-04T20:37:15.335Z,2.97
2022-12-04T20:39:43.987Z,2.95
2022-12-04T20:42:12.209Z,2.97
2022-12-04T20:44:42.731Z,2.98
2022-12-04T20:47:12.528Z,2.97
2022-12-04T20:49:40.503Z,2.98
2022-12-04T20:52:10.688Z,2.97
2022-12-04T20:54:41.538Z,2.97
2022-12-04T20:57:11.621Z,2.95
2022-12-04T20:59:40.363Z,2.98
2022-12-04T21:02:12.635Z,3.00
2022-12-04T21:04:41.187Z,3.02
2022-12-04T21:07:09.330Z,3.01
2022-12-04T21:09:36.952Z,3.01
2022-12-04T21:12:05.104Z,2.98
2022-12-04T21:14:33.781Z,2.98
2022-12-04T21:17:01.642Z,2.97
2022-12-04T21:19:31.016Z,2.97
2022-12-04T21:21:58.354Z,3.00
2022-12-04T21:24:27.128Z,2.99
2022-12-04T21:26:55.254Z,2.99
2022-12-04T21:29:23.324Z,3.01
2022-12-04T21:31:50.209Z,3.01
2022-12-04T21:34:18.389Z,3.02
2022-12-04T21:36:48.151Z,3.06
2022-12-04T21:39:16.675Z,3.07
2022-12-04T21:41:43.587Z,3.08
2022-12-04T21:44:16.283Z,3.10
2022-12-04T21:46:44.672Z,3.11
2022-12-04T21:49:12.493Z,3.14
2022-12-04T21:51:59.251Z,3.12
2022-12-04T21:54:30.199Z,3.15
2022-12-04T21:56:57.925Z,3.16
2022-12-04T21:59:25.882Z,3.18
2022-12-04T22:01:53.642Z,3.18
2022-12-04T22:04:20.991Z,3.18
2022-12-04T22:06:47.821Z,3.19
2022-12-04T22:09:14.647Z,3.18
2022-12-04T22:11:42.037Z,3.16
2022-12-04T22:14:10.024Z,3.17
2022-12-04T22:16:41.913Z,3.15
2022-12-04T22:19:11.624Z,3.16
2022-12-04T22:21:38.952Z,3.15
2022-12-04T22:24:06.295Z,3.18
2022-12-04T22:26:33.453Z,3.20
2022-12-04T22:29:00.274Z,3.22
2022-12-04T22:31:29.854Z,3.24
2022-12-04T22:33:59.585Z,3.22
2022-12-04T22:36:32.050Z,3.22
2022-12-04T22:39:09.468Z,3.25
2022-12-04T22:41:37.486Z,3.28
2022-12-04T22:44:04.953Z,3.26
2022-12-04T22:46:32.265Z,3.27
2022-12-04T22:49:06.477Z,3.28
2022-12-04T22:52:00.041Z,3.30
2022-12-04T22:54:39.996Z,3.30
2022-12-04T22:57:26.551Z,3.28
2022-12-04T23:00:06.128Z,3.32
2022-12-04T23:02:48.395Z,3.32
2022-12-04T23:08:34.757Z,3.30
2022-12-04T23:11:34.293Z,3.30
2022-12-04T23:14:12.556Z,3.33
2022-12-04T23:16:47.150Z,3.33
2022-12-04T23:19:20.929Z,3.33
2022-12-04T23:21:56.443Z,3.32
2022-12-04T23:24:26.609Z,3.32
2022-12-04T23:26:53.679Z,3.32
2022-12-04T23:29:51.321Z,3.32
2022-12-04T23:32:07.576Z,3.32
2022-12-04T23:34:34.947Z,3.33
2022-12-04T23:37:01.687Z,3.31
2022-12-04T23:39:28.611Z,3.34
2022-12-04T23:41:55.360Z,3.34
2022-12-04T23:44:22.113Z,3.33
2022-12-04T23:46:49.041Z,3.35
2022-12-04T23:49:15.837Z,3.36
2022-12-04T23:51:42.673Z,3.38
2022-12-04T23:54:10.151Z,3.37
2022-12-04T23:56:37.054Z,3.38
2022-12-04T23:59:08.737Z,3.36
